TAF KLCH
KLCH 081734Z 0818/0918 05008KT P6SM OVC020 FM082200 10006KT P6SM SCT025 FM090300 12004KT P6SM BKN030 FM090600 13004KT 3SM BR BKN006 FM090800 14005KT 1SM BR OVC003 FM091500 16006KT 4SM BR OVC005 FM091700 19009KT P6SM VCSH OVC009=
METAR KLCH
KLCH 082053Z 07006KT 10SM OVC040 17/11 A3002 RMK AO2 SLP173 T01670111 56022 ?
KLCH 081953Z 07007KT 8SM BKN018 OVC040 17/12 A3003 RMK AO2 SLP176 T01670117 ?
KLCH 081853Z 06008KT 7SM OVC018 16/12 A3005 RMK AO2 SLP183 T01610117 ?
KLCH 081753Z 05013KT 8SM OVC016 15/11 A3009 RMK AO2 SLP195 T01500111 10156 20111 58007 ?
SPECI KLCH 081727Z 04013G22KT 8SM OVC015 15/12 A3009 RMK AO2 T01500117
WC KLCH
WS KLCH
WV KLCH